createdAt,value
2018-11-21T00:00:23.945Z,103737.73
2018-11-21T00:01:25.992Z,103739.06
2018-11-21T00:02:28.069Z,103731.95
2018-11-21T00:03:30.126Z,103727.06
2018-11-21T00:04:32.200Z,103729.73
2018-11-21T00:05:34.270Z,103731.06
2018-11-21T00:06:36.356Z,103734.66
2018-11-21T00:07:38.429Z,103731.52
2018-11-21T00:08:40.488Z,103730.66
2018-11-21T00:09:42.557Z,103733.33
2018-11-21T00:11:59.740Z,103732.44
2018-11-21T00:13:01.800Z,103734.66
2018-11-21T00:14:04.058Z,103734.66
2018-11-21T00:15:07.673Z,103735.58
2018-11-21T00:16:09.851Z,103734.25
2018-11-21T00:17:11.919Z,103731.58
2018-11-21T00:18:14.765Z,103730.25
2018-11-21T00:19:16.850Z,103737.77
2018-11-21T00:20:18.935Z,103739.58
2018-11-21T00:21:21.025Z,103738.66
2018-11-21T00:22:23.089Z,103743.98
2018-11-21T00:23:25.150Z,103745.77
2018-11-21T00:24:27.248Z,103742.65
2018-11-21T00:25:29.325Z,103747.98
2018-11-21T00:26:31.403Z,103741.31
2018-11-21T00:27:33.465Z,103747.94
2018-11-21T00:28:35.529Z,103743.46
2018-11-21T00:29:37.596Z,103742.61
2018-11-21T00:30:39.669Z,103747.05
2018-11-21T00:31:41.741Z,103751.50
2018-11-21T00:32:43.805Z,103751.05
2018-11-21T00:33:45.866Z,103749.72
2018-11-21T00:34:48.107Z,103752.80
2018-11-21T00:35:50.177Z,103756.38
2018-11-21T00:36:52.255Z,103751.45
2018-11-21T00:37:54.434Z,103746.13
2018-11-21T00:38:56.487Z,103746.13
2018-11-21T00:39:58.555Z,103748.39
2018-11-21T00:41:00.630Z,103740.84
2018-11-21T00:42:02.811Z,103739.58
2018-11-21T00:43:04.902Z,103745.31
2018-11-21T00:44:06.970Z,103744.43
2018-11-21T00:45:09.864Z,103746.17
2018-11-21T00:46:11.921Z,103748.91
2018-11-21T00:47:14.407Z,103743.09
2018-11-21T00:48:16.457Z,103740.91
2018-11-21T00:49:20.375Z,103744.50
2018-11-21T00:50:22.442Z,103748.91
2018-11-21T00:51:24.503Z,103738.28
2018-11-21T00:53:41.685Z,103736.10
2018-11-21T00:56:05.378Z,103737.84
2018-11-21T00:57:07.720Z,103740.02
2018-11-21T00:58:09.801Z,103742.69
2018-11-21T00:59:12.490Z,103742.77
2018-11-21T01:00:14.544Z,103741.03
2018-11-21T01:01:16.621Z,103737.03
2018-11-21T01:02:18.690Z,103722.76
2018-11-21T01:03:20.857Z,103738.41
2018-11-21T01:04:22.911Z,103735.30
2018-11-21T01:05:24.961Z,103732.22
2018-11-21T01:06:27.119Z,103732.67
2018-11-21T01:07:29.187Z,103732.27
2018-11-21T01:08:31.302Z,103734.48
2018-11-21T01:09:33.365Z,103735.33
2018-11-21T01:10:35.470Z,103733.55
2018-11-21T01:11:37.541Z,103733.15
2018-11-21T01:12:39.621Z,103726.93
2018-11-21T01:13:41.690Z,103733.59
2018-11-21T01:14:43.755Z,103728.75
2018-11-21T01:15:45.848Z,103734.48
2018-11-21T01:16:47.906Z,103741.14
2018-11-21T01:17:49.976Z,103738.08
2018-11-21T01:18:52.144Z,103734.52
2018-11-21T01:19:54.201Z,103735.41
2018-11-21T01:20:56.357Z,103734.48
2018-11-21T01:21:58.415Z,103733.19
2018-11-21T01:23:00.521Z,103732.74
2018-11-21T01:24:02.614Z,103732.74
2018-11-21T01:25:05.485Z,103717.14
2018-11-21T01:26:07.541Z,103733.67
2018-11-21T01:27:09.610Z,103743.80
2018-11-21T01:28:11.926Z,103735.41
2018-11-21T01:29:14.010Z,103730.08
2018-11-21T01:30:16.065Z,103732.74
2018-11-21T01:31:18.126Z,103729.59
2018-11-21T01:32:20.189Z,103726.08
2018-11-21T01:33:22.256Z,103730.48
2018-11-21T01:34:24.354Z,103725.16
2018-11-21T01:35:26.401Z,103717.16
2018-11-21T01:36:28.453Z,103718.94
2018-11-21T01:37:30.513Z,103718.94
2018-11-21T01:38:32.584Z,103718.89
2018-11-21T01:39:34.652Z,103717.56
2018-11-21T01:40:36.822Z,103715.34
2018-11-21T01:41:39.545Z,103718.89
2018-11-21T01:42:41.604Z,103724.63
2018-11-21T01:43:43.674Z,103725.08
2018-11-21T01:44:45.768Z,103727.75
2018-11-21T01:45:47.857Z,103718.89
2018-11-21T01:46:49.914Z,103718.89
2018-11-21T01:47:51.981Z,103719.75
2018-11-21T01:48:54.048Z,103722.89
2018-11-21T01:49:56.137Z,103719.34
2018-11-21T01:50:58.222Z,103715.34
2018-11-21T01:52:03.156Z,103722.48
2018-11-21T01:53:05.222Z,103714.49
2018-11-21T01:54:07.293Z,103715.83
2018-11-21T01:55:09.465Z,103722.01
2018-11-21T01:56:11.565Z,103726.93
2018-11-21T01:57:13.638Z,103725.16
2018-11-21T01:58:15.698Z,103722.48
2018-11-21T01:59:17.760Z,103726.00
2018-11-21T02:00:19.941Z,103734.00
2018-11-21T02:01:22.004Z,103730.48
2018-11-21T02:02:24.061Z,103726.48
2018-11-21T02:03:26.128Z,103726.08
2018-11-21T02:04:28.194Z,103724.27
2018-11-21T02:05:30.271Z,103735.81
2018-11-21T02:06:32.329Z,103733.59
2018-11-21T02:07:34.416Z,103732.74
2018-11-21T02:08:36.467Z,103730.08
2018-11-21T02:09:38.521Z,103730.08
2018-11-21T02:10:40.668Z,103727.86
2018-11-21T02:11:42.754Z,103732.74
2018-11-21T02:12:44.817Z,103732.74
2018-11-21T02:13:46.882Z,103729.67
2018-11-21T02:14:48.958Z,103728.75
2018-11-21T02:15:51.026Z,103727.01
2018-11-21T02:16:53.086Z,103726.12
2018-11-21T02:17:55.207Z,103729.67
2018-11-21T02:18:57.266Z,103721.67
2018-11-21T02:19:59.331Z,103724.34
2018-11-21T02:21:01.511Z,103727.01
2018-11-21T02:22:03.562Z,103728.34
2018-11-21T02:23:05.734Z,103723.94
2018-11-21T02:24:07.793Z,103723.45
2018-11-21T02:25:09.856Z,103725.27
2018-11-21T02:26:11.938Z,103723.01
2018-11-21T02:27:13.989Z,103727.01
2018-11-21T02:28:16.055Z,103723.94
2018-11-21T02:29:18.126Z,103722.61
2018-11-21T02:30:20.189Z,103719.94
2018-11-21T02:31:22.264Z,103716.39
2018-11-21T02:32:24.323Z,103715.94
2018-11-21T02:33:26.384Z,103722.61
2018-11-21T02:34:28.453Z,103726.20
2018-11-21T02:35:30.542Z,103727.53
2018-11-21T02:36:32.714Z,103724.86
2018-11-21T02:37:35.046Z,103729.30
2018-11-21T02:38:37.116Z,103723.05
2018-11-21T02:39:39.292Z,103724.86
2018-11-21T02:40:41.350Z,103717.80
2018-11-21T02:41:43.429Z,103713.80
2018-11-21T02:42:45.481Z,103723.12
2018-11-21T02:43:47.643Z,103715.13
2018-11-21T02:44:49.705Z,103712.91
2018-11-21T02:45:51.774Z,103714.72
2018-11-21T02:46:53.946Z,103718.24
2018-11-21T02:47:56.005Z,103712.47
2018-11-21T02:48:58.066Z,103712.98
2018-11-21T02:50:00.169Z,103713.80
2018-11-21T02:51:02.237Z,103701.84
2018-11-21T02:52:04.689Z,103702.33
2018-11-21T02:53:06.745Z,103699.66
2018-11-21T02:54:08.813Z,103704.99
2018-11-21T02:55:10.873Z,103701.92
2018-11-21T02:56:12.958Z,103696.59
2018-11-21T02:57:16.902Z,103704.11
2018-11-21T02:58:18.961Z,103702.33
2018-11-21T02:59:21.022Z,103702.33
2018-11-21T03:00:24.918Z,103699.66
2018-11-21T03:01:26.972Z,103700.11
2018-11-21T03:02:29.041Z,103699.66
2018-11-21T03:03:31.089Z,103697.00
2018-11-21T03:04:33.152Z,103701.45
2018-11-21T03:05:35.222Z,103702.33
2018-11-21T03:06:37.286Z,103700.59
2018-11-21T03:07:58.987Z,103700.11
2018-11-21T03:09:01.048Z,103691.27
2018-11-21T03:10:03.373Z,103691.67
2018-11-21T03:11:05.429Z,103686.78
2018-11-21T03:12:08.107Z,103692.52
2018-11-21T03:13:10.194Z,103696.08
2018-11-21T03:14:12.750Z,103691.67
2018-11-21T03:15:14.866Z,103687.27
2018-11-21T03:16:16.913Z,103689.01
2018-11-21T03:17:18.968Z,103693.45
2018-11-21T03:18:21.042Z,103692.59
2018-11-21T03:19:23.121Z,103687.72
2018-11-21T03:20:25.186Z,103685.94
2018-11-21T03:21:27.253Z,103690.78
2018-11-21T03:22:29.322Z,103691.27
2018-11-21T03:23:31.404Z,103701.04
2018-11-21T03:24:34.522Z,103698.78
2018-11-21T03:25:36.585Z,103705.52
2018-11-21T03:26:38.658Z,103703.25
2018-11-21T03:27:40.766Z,103698.33
2018-11-21T03:28:42.955Z,103693.52
2018-11-21T03:29:45.009Z,103692.59
2018-11-21T03:30:47.066Z,103688.13
2018-11-21T03:31:49.199Z,103684.61
2018-11-21T03:32:51.272Z,103681.94
2018-11-21T03:33:57.696Z,103679.28
2018-11-21T03:34:55.543Z,103688.60
2018-11-21T03:35:57.609Z,103683.72
2018-11-21T03:36:59.665Z,103680.61
2018-11-21T03:38:01.736Z,103683.27
2018-11-21T03:39:07.139Z,103685.05
2018-11-21T03:40:10.670Z,103689.53
2018-11-21T03:41:12.737Z,103683.80
2018-11-21T03:42:14.798Z,103688.23
2018-11-21T03:43:16.853Z,103692.71
2018-11-21T03:44:18.927Z,103694.49
2018-11-21T03:45:40.515Z,103690.98
2018-11-21T03:46:43.582Z,103693.16
2018-11-21T03:47:45.650Z,103691.83
2018-11-21T03:48:47.721Z,103686.45
2018-11-21T03:49:49.797Z,103689.16
2018-11-21T03:50:51.874Z,103688.31
2018-11-21T03:51:53.953Z,103693.16
2018-11-21T03:52:56.014Z,103693.64
2018-11-21T03:53:58.082Z,103695.90
2018-11-21T03:55:00.254Z,103703.00
2018-11-21T03:56:02.422Z,103705.22
2018-11-21T03:57:04.526Z,103703.00
2018-11-21T03:58:06.579Z,103708.33
2018-11-21T03:59:09.186Z,103711.44
2018-11-21T04:00:12.442Z,103710.59
2018-11-21T04:01:14.518Z,103707.92
2018-11-21T04:02:16.576Z,103697.27
2018-11-21T04:03:18.622Z,103706.12
2018-11-21T04:04:20.688Z,103692.80
2018-11-21T04:05:22.769Z,103699.05
2018-11-21T04:06:24.821Z,103690.66
2018-11-21T04:07:27.335Z,103692.88
2018-11-21T04:08:29.402Z,103694.65
2018-11-21T04:09:31.470Z,103700.38
2018-11-21T04:10:33.647Z,103700.38
2018-11-21T04:11:35.713Z,103695.53
2018-11-21T04:12:37.869Z,103696.86
2018-11-21T04:13:39.934Z,103689.31
2018-11-21T04:14:41.998Z,103696.86
2018-11-21T04:15:44.178Z,103695.05
2018-11-21T04:16:46.241Z,103695.13
2018-11-21T04:17:48.297Z,103692.91
2018-11-21T04:18:51.640Z,103695.13
2018-11-21T04:19:53.710Z,103671.53
2018-11-21T04:20:55.781Z,103693.80
2018-11-21T04:21:57.852Z,103695.53
2018-11-21T04:22:59.914Z,103696.86
2018-11-21T04:24:01.970Z,103700.86
2018-11-21T04:25:05.368Z,103707.92
2018-11-21T04:26:07.527Z,103711.04
2018-11-21T04:27:09.594Z,103707.92
2018-11-21T04:28:11.655Z,103708.78
2018-11-21T04:29:13.718Z,103708.78
2018-11-21T04:30:15.786Z,103711.44
2018-11-21T04:31:17.861Z,103707.45
2018-11-21T04:32:19.922Z,103703.89
2018-11-21T04:33:22.002Z,103705.71
2018-11-21T04:34:24.050Z,103706.08
2018-11-21T04:35:26.121Z,103697.72
2018-11-21T04:36:28.197Z,103704.37
2018-11-21T04:37:30.250Z,103702.59
2018-11-21T04:38:32.311Z,103704.78
2018-11-21T04:39:34.381Z,103702.56
2018-11-21T04:40:36.449Z,103698.56
2018-11-21T04:41:38.614Z,103693.68
2018-11-21T04:42:40.682Z,103698.13
2018-11-21T04:43:42.729Z,103697.27
2018-11-21T04:44:44.806Z,103699.45
2018-11-21T04:45:46.874Z,103707.45
2018-11-21T04:46:49.055Z,103714.99
2018-11-21T04:47:51.118Z,103713.66
2018-11-21T04:48:53.173Z,103713.22
2018-11-21T04:49:55.234Z,103713.66
2018-11-21T04:50:57.299Z,103708.78
2018-11-21T04:51:59.369Z,103707.00
2018-11-21T04:53:01.429Z,103701.63
2018-11-21T04:54:03.700Z,103695.42
2018-11-21T04:55:06.564Z,103697.64
2018-11-21T04:56:08.626Z,103708.17
2018-11-21T04:58:25.877Z,103707.70
2018-11-21T04:59:27.954Z,103702.77
2018-11-21T05:00:30.011Z,103696.08
2018-11-21T05:01:32.070Z,103693.41
2018-11-21T05:02:34.154Z,103693.41
2018-11-21T05:03:36.279Z,103695.59
2018-11-21T05:04:38.309Z,103692.89
2018-11-21T05:05:40.374Z,103693.30
2018-11-21T05:06:42.438Z,103694.22
2018-11-21T05:07:44.517Z,103695.15
2018-11-21T05:08:46.581Z,103691.07
2018-11-21T05:09:48.646Z,103691.07
2018-11-21T05:10:50.706Z,103688.89
2018-11-21T05:11:52.774Z,103688.89
2018-11-21T05:12:54.881Z,103693.30
2018-11-21T05:13:56.950Z,103686.23
2018-11-21T05:14:59.034Z,103692.48
2018-11-21T05:16:01.093Z,103690.22
2018-11-21T05:17:03.151Z,103689.81
2018-11-21T05:18:05.419Z,103691.55
2018-11-21T05:19:07.475Z,103692.48
2018-11-21T05:20:09.577Z,103691.07
2018-11-21T05:21:11.632Z,103699.14
2018-11-21T05:22:13.686Z,103686.27
2018-11-21T05:23:15.754Z,103691.19
2018-11-21T05:24:17.806Z,103692.48
2018-11-21T05:25:19.917Z,103694.27
2018-11-21T05:26:21.946Z,103692.08
2018-11-21T05:27:24.009Z,103690.75
2018-11-21T05:28:26.129Z,103686.34
2018-11-21T05:29:28.185Z,103683.68
2018-11-21T05:30:30.245Z,103683.68
2018-11-21T05:31:32.313Z,103686.34
2018-11-21T05:32:34.383Z,103683.27
2018-11-21T05:33:36.460Z,103684.13
2018-11-21T05:34:38.814Z,103678.34
2018-11-21T05:35:40.874Z,103688.13
2018-11-21T05:36:42.946Z,103680.20
2018-11-21T05:37:45.017Z,103683.27
2018-11-21T05:38:47.086Z,103663.68
2018-11-21T05:39:49.142Z,103679.72
2018-11-21T05:40:51.210Z,103682.87
2018-11-21T05:41:53.272Z,103682.87
2018-11-21T05:42:55.337Z,103681.94
2018-11-21T05:43:57.533Z,103680.65
2018-11-21T05:44:59.610Z,103683.80
2018-11-21T05:46:01.678Z,103681.13
2018-11-21T05:47:03.747Z,103685.53
2018-11-21T05:48:06.027Z,103680.20
2018-11-21T05:49:08.109Z,103670.99
2018-11-21T05:50:11.550Z,103666.48
2018-11-21T05:51:13.601Z,103666.07
2018-11-21T05:52:15.666Z,103663.41
2018-11-21T05:53:17.728Z,103667.84
2018-11-21T05:54:19.805Z,103671.44
2018-11-21T05:55:21.875Z,103667.45
2018-11-21T05:56:23.988Z,103671.44
2018-11-21T05:57:25.990Z,103672.77
2018-11-21T05:58:28.075Z,103672.77
2018-11-21T06:00:49.142Z,103674.99
2018-11-21T06:01:48.112Z,103675.03
2018-11-21T06:02:50.181Z,103674.99
2018-11-21T06:03:52.259Z,103672.33
2018-11-21T06:04:54.341Z,103680.77
2018-11-21T06:05:56.405Z,103673.25
2018-11-21T06:06:58.474Z,103677.25
2018-11-21T06:08:00.542Z,103675.92
2018-11-21T06:09:03.538Z,103677.70
2018-11-21T06:10:08.509Z,103678.09
2018-11-21T06:11:10.574Z,103673.25
2018-11-21T06:12:12.639Z,103670.59
2018-11-21T06:13:14.705Z,103668.38
2018-11-21T06:14:16.782Z,103669.66
2018-11-21T06:15:18.870Z,103665.26
2018-11-21T06:16:20.926Z,103663.93
2018-11-21T06:17:22.979Z,103669.70
2018-11-21T06:18:25.038Z,103666.11
2018-11-21T06:19:27.305Z,103669.66
2018-11-21T06:20:29.190Z,103667.04
2018-11-21T06:21:31.358Z,103666.11
2018-11-21T06:22:33.408Z,103666.59
2018-11-21T06:23:35.483Z,103666.59
2018-11-21T06:24:37.538Z,103665.67
2018-11-21T06:25:39.903Z,103667.00
2018-11-21T06:26:41.970Z,103668.38
2018-11-21T06:27:44.040Z,103664.82
2018-11-21T06:28:46.106Z,103665.70
2018-11-21T06:29:48.165Z,103663.05
2018-11-21T06:30:50.252Z,103667.92
2018-11-21T06:31:52.357Z,103663.48
2018-11-21T06:32:54.414Z,103667.04
2018-11-21T06:33:56.574Z,103663.97
2018-11-21T06:34:58.637Z,103663.48
2018-11-21T06:36:00.715Z,103659.97
2018-11-21T06:37:02.786Z,103656.83
2018-11-21T06:38:04.850Z,103653.76
2018-11-21T06:39:07.183Z,103654.16
2018-11-21T06:40:28.842Z,103653.76
2018-11-21T06:41:30.956Z,103653.76
2018-11-21T06:42:33.010Z,103652.83
2018-11-21T06:43:35.071Z,103648.43
2018-11-21T06:44:37.137Z,103647.50
2018-11-21T06:45:39.205Z,103648.43
2018-11-21T06:46:41.719Z,103645.77
2018-11-21T06:47:43.785Z,103638.70
2018-11-21T06:48:45.860Z,103638.70
2018-11-21T06:49:47.921Z,103646.70
2018-11-21T06:50:50.010Z,103641.37
2018-11-21T06:51:52.076Z,103646.77
2018-11-21T06:52:55.231Z,103644.95
2018-11-21T06:53:57.298Z,103648.03
2018-11-21T06:54:59.383Z,103648.95
2018-11-21T06:56:01.452Z,103639.63
2018-11-21T06:57:03.523Z,103647.17
2018-11-21T06:58:05.640Z,103643.63
2018-11-21T06:59:07.800Z,103644.03
2018-11-21T07:00:10.528Z,103643.22
2018-11-21T07:01:12.595Z,103642.30
2018-11-21T07:02:16.659Z,103651.21
2018-11-21T07:03:18.719Z,103655.61
2018-11-21T07:04:20.779Z,103642.81
2018-11-21T07:05:22.845Z,103648.55
2018-11-21T07:06:25.193Z,103644.55
2018-11-21T07:07:27.401Z,103639.23
2018-11-21T07:08:29.449Z,103630.83
2018-11-21T07:09:31.510Z,103633.48
2018-11-21T07:10:33.565Z,103634.83
2018-11-21T07:11:35.685Z,103637.48
2018-11-21T07:12:37.778Z,103637.97
2018-11-21T07:13:40.074Z,103638.81
2018-11-21T07:14:42.133Z,103644.63
2018-11-21T07:15:44.199Z,103642.41
2018-11-21T07:16:46.269Z,103646.36
2018-11-21T07:17:48.346Z,103637.08
2018-11-21T07:18:50.406Z,103634.02
2018-11-21T07:19:52.468Z,103637.97
2018-11-21T07:20:54.525Z,103635.75
2018-11-21T07:21:56.602Z,103639.75
2018-11-21T07:22:58.681Z,103640.63
2018-11-21T07:24:00.741Z,103633.56
2018-11-21T07:25:04.173Z,103638.01
2018-11-21T07:26:06.461Z,103637.08
2018-11-21T07:27:08.529Z,103640.67
2018-11-21T07:28:13.141Z,103644.22
2018-11-21T07:29:12.654Z,103634.02
2018-11-21T07:30:15.571Z,103638.41
2018-11-21T07:31:17.639Z,103633.56
2018-11-21T07:32:44.179Z,103638.41
2018-11-21T07:33:46.602Z,103637.97
2018-11-21T07:34:48.329Z,103644.55
2018-11-21T07:35:50.401Z,103636.16
2018-11-21T07:36:52.466Z,103644.95
2018-11-21T07:37:54.538Z,103644.95
2018-11-21T07:38:56.612Z,103644.95
2018-11-21T07:39:58.671Z,103644.10
2018-11-21T07:41:00.729Z,103641.44
2018-11-21T07:42:02.801Z,103644.10
2018-11-21T07:43:04.880Z,103639.18
2018-11-21T07:44:06.946Z,103642.30
2018-11-21T07:45:10.783Z,103642.30
2018-11-21T07:46:12.890Z,103639.63
2018-11-21T07:47:14.957Z,103640.03
2018-11-21T07:48:20.585Z,103639.63
2018-11-21T07:49:19.102Z,103645.84
2018-11-21T07:50:21.619Z,103646.29
2018-11-21T07:51:23.686Z,103646.70
2018-11-21T07:52:25.749Z,103643.17
2018-11-21T07:53:27.852Z,103640.52
2018-11-21T07:54:29.933Z,103644.95
2018-11-21T07:55:31.998Z,103643.63
2018-11-21T07:57:13.093Z,103639.23
2018-11-21T07:58:17.011Z,103644.10
2018-11-21T07:59:19.073Z,103640.92
2018-11-21T08:01:04.330Z,103641.77
2018-11-21T08:02:14.112Z,103638.25
2018-11-21T08:03:16.543Z,103637.33
2018-11-21T08:04:38.099Z,103625.38
2018-11-21T08:05:44.405Z,103630.70
2018-11-21T08:06:57.065Z,103632.97
2018-11-21T08:08:18.614Z,103630.30
2018-11-21T08:09:40.202Z,103628.05
2018-11-21T08:11:01.792Z,103632.56
2018-11-21T08:12:23.467Z,103642.30
2018-11-21T08:13:45.022Z,103638.30
2018-11-21T08:15:06.626Z,103640.95
2018-11-21T08:16:28.202Z,103642.77
2018-11-21T08:17:49.771Z,103636.16
2018-11-21T08:19:11.325Z,103630.42
2018-11-21T08:20:32.922Z,103623.31
2018-11-21T08:21:54.478Z,103626.42
2018-11-21T08:23:16.048Z,103630.02
2018-11-21T08:24:23.778Z,103625.62
2018-11-21T08:25:45.346Z,103629.17
2018-11-21T08:27:06.914Z,103624.77
2018-11-21T08:28:19.206Z,103622.10
2018-11-21T08:29:21.275Z,103629.61
2018-11-21T08:30:23.334Z,103622.14
2018-11-21T08:31:25.389Z,103623.48
2018-11-21T08:32:27.452Z,103623.95
2018-11-21T08:33:34.002Z,103616.48
2018-11-21T08:34:33.061Z,103612.94
2018-11-21T08:35:35.126Z,103618.27
2018-11-21T08:36:37.195Z,103609.34
2018-11-21T08:37:39.264Z,103616.94
2018-11-21T08:38:41.338Z,103606.28
2018-11-21T08:39:43.400Z,103612.48
2018-11-21T08:40:45.490Z,103613.34
2018-11-21T08:41:47.529Z,103609.83
2018-11-21T08:42:49.590Z,103611.08
2018-11-21T08:43:51.667Z,103606.69
2018-11-21T08:44:53.725Z,103598.25
2018-11-21T08:45:55.787Z,103592.92
2018-11-21T08:46:57.846Z,103591.59
2018-11-21T08:47:59.907Z,103573.78
2018-11-21T08:49:01.983Z,103596.44
2018-11-21T08:50:06.806Z,103597.77
2018-11-21T08:51:08.868Z,103599.50
2018-11-21T08:52:10.935Z,103607.49
2018-11-21T08:53:12.995Z,103606.64
2018-11-21T08:54:15.098Z,103608.38
2018-11-21T08:55:17.166Z,103605.71
2018-11-21T08:56:19.242Z,103617.22
2018-11-21T08:57:21.318Z,103613.22
2018-11-21T08:58:23.379Z,103613.22
2018-11-21T08:59:25.454Z,103594.12
2018-11-21T09:00:27.510Z,103614.11
2018-11-21T09:01:29.583Z,103612.30
2018-11-21T09:02:31.656Z,103620.69
2018-11-21T09:03:33.708Z,103617.18
2018-11-21T09:04:35.790Z,103621.17
2018-11-21T09:05:39.408Z,103616.70
2018-11-21T09:06:41.466Z,103623.84
2018-11-21T09:07:43.521Z,103618.91
2018-11-21T09:08:45.570Z,103626.02
2018-11-21T09:09:47.743Z,103613.59
2018-11-21T09:10:49.806Z,103611.85
2018-11-21T09:11:51.867Z,103621.09
2018-11-21T09:12:53.962Z,103616.70
2018-11-21T09:13:56.034Z,103618.51
2018-11-21T09:14:58.110Z,103616.70
2018-11-21T09:16:00.170Z,103616.25
2018-11-21T09:17:02.244Z,103610.04
2018-11-21T09:18:04.414Z,103612.70
2018-11-21T09:19:06.473Z,103607.78
2018-11-21T09:20:09.121Z,103606.45
2018-11-21T09:21:11.270Z,103603.78
2018-11-21T09:22:13.382Z,103603.78
2018-11-21T09:23:15.449Z,103602.93
2018-11-21T09:24:17.529Z,103606.00
2018-11-21T09:25:19.629Z,103606.00
2018-11-21T09:26:21.686Z,103599.78
2018-11-21T09:27:23.761Z,103598.45
2018-11-21T09:28:25.858Z,103593.61
2018-11-21T09:29:27.921Z,103597.13
2018-11-21T09:30:30.116Z,103597.53
2018-11-21T09:31:32.306Z,103598.86
2018-11-21T09:32:34.362Z,103596.27
2018-11-21T09:33:36.437Z,103597.61
2018-11-21T09:34:38.488Z,103598.45
2018-11-21T09:35:40.557Z,103601.12
2018-11-21T09:36:44.324Z,103599.78
2018-11-21T09:37:46.396Z,103598.94
2018-11-21T09:38:48.456Z,103595.80
2018-11-21T09:39:50.944Z,103590.46
2018-11-21T09:40:53.049Z,103593.13
2018-11-21T09:41:55.099Z,103595.80
2018-11-21T09:42:57.155Z,103590.88
2018-11-21T09:43:59.218Z,103596.27
2018-11-21T09:45:01.273Z,103586.06
2018-11-21T09:46:03.446Z,103592.72
2018-11-21T09:47:05.508Z,103598.86
2018-11-21T09:48:07.569Z,103594.45
2018-11-21T09:49:09.686Z,103595.80
2018-11-21T09:50:32.737Z,103591.80
2018-11-21T09:51:34.882Z,103597.13
2018-11-21T09:52:36.982Z,103599.75
2018-11-21T09:53:39.037Z,103597.08
2018-11-21T09:54:41.093Z,103592.68
2018-11-21T09:55:43.158Z,103596.67
2018-11-21T09:56:45.229Z,103593.09
2018-11-21T09:57:47.286Z,103589.09
2018-11-21T09:58:49.353Z,103588.20
2018-11-21T09:59:51.410Z,103590.88
2018-11-21T10:01:32.485Z,103593.48
2018-11-21T10:03:15.049Z,103591.27
2018-11-21T10:04:17.128Z,103589.94
2018-11-21T10:05:19.188Z,103592.04
2018-11-21T10:06:26.424Z,103588.04
2018-11-21T10:07:28.756Z,103588.97
2018-11-21T10:08:52.606Z,103585.42
2018-11-21T10:09:54.704Z,103589.02
2018-11-21T10:10:56.769Z,103592.08
2018-11-21T10:11:58.833Z,103587.68
2018-11-21T10:13:00.937Z,103581.42
2018-11-21T10:14:02.987Z,103580.62
2018-11-21T10:15:06.069Z,103585.02
2018-11-21T10:16:08.490Z,103577.95
2018-11-21T10:17:10.607Z,103575.69
2018-11-21T10:18:12.662Z,103572.63
2018-11-21T10:19:14.730Z,103576.22
2018-11-21T10:20:16.793Z,103577.95
2018-11-21T10:21:20.505Z,103578.36
2018-11-21T10:22:22.566Z,103577.03
2018-11-21T10:23:24.650Z,103573.03
2018-11-21T10:24:26.705Z,103572.63
2018-11-21T10:25:28.785Z,103581.95
2018-11-21T10:26:30.877Z,103577.50
2018-11-21T10:27:32.946Z,103572.63
2018-11-21T10:28:35.036Z,103574.36
2018-11-21T10:29:37.086Z,103566.37
2018-11-21T10:30:39.330Z,103574.31
2018-11-21T10:31:41.395Z,103568.11
2018-11-21T10:32:43.473Z,103571.66
2018-11-21T10:33:45.645Z,103568.51
2018-11-21T10:34:47.709Z,103562.77
2018-11-21T10:35:49.794Z,103560.11
2018-11-21T10:36:51.854Z,103561.84
2018-11-21T10:37:53.905Z,103558.73
2018-11-21T10:38:55.977Z,103555.67
2018-11-21T10:39:58.033Z,103556.47
2018-11-21T10:41:00.111Z,103558.26
2018-11-21T10:42:02.162Z,103552.03
2018-11-21T10:43:04.843Z,103544.48
2018-11-21T10:44:06.921Z,103544.04
2018-11-21T10:45:09.057Z,103540.48
2018-11-21T10:46:11.101Z,103536.05
2018-11-21T10:47:13.159Z,103534.23
2018-11-21T10:48:15.217Z,103540.45
2018-11-21T10:49:17.290Z,103539.52
2018-11-21T10:50:19.353Z,103535.52
2018-11-21T10:51:21.425Z,103536.86
2018-11-21T10:52:23.487Z,103529.71
2018-11-21T10:53:25.805Z,103526.20
2018-11-21T10:54:27.873Z,103526.12
2018-11-21T10:55:30.338Z,103514.61
2018-11-21T10:56:32.428Z,103519.45
2018-11-21T10:57:34.482Z,103499.89
2018-11-21T10:58:36.553Z,103512.34
2018-11-21T10:59:38.722Z,103512.34
2018-11-21T11:01:00.267Z,103515.41
2018-11-21T11:02:21.846Z,103521.59
2018-11-21T11:03:43.430Z,103512.27
2018-11-21T11:05:05.098Z,103518.00
2018-11-21T11:06:26.675Z,103510.41
2018-11-21T11:07:48.248Z,103511.30
2018-11-21T11:09:09.843Z,103509.96
2018-11-21T11:10:32.073Z,103509.96
2018-11-21T11:11:53.631Z,103506.90
2018-11-21T11:13:15.203Z,103509.96
2018-11-21T11:14:36.861Z,103504.63
2018-11-21T11:15:58.445Z,103505.56
2018-11-21T11:17:20.003Z,103496.23
2018-11-21T11:18:41.576Z,103501.56
2018-11-21T11:20:04.199Z,103498.42
2018-11-21T11:21:24.954Z,103500.23
2018-11-21T11:22:46.559Z,103498.02
2018-11-21T11:24:08.125Z,103500.64
2018-11-21T11:25:29.690Z,103493.58
2018-11-21T11:26:51.266Z,103489.17
2018-11-21T11:28:14.757Z,103487.77
2018-11-21T11:29:34.421Z,103485.58
2018-11-21T11:30:56.026Z,103485.50
2018-11-21T11:32:17.687Z,103481.98
2018-11-21T11:33:39.230Z,103476.17
2018-11-21T11:35:00.805Z,103479.24
2018-11-21T11:36:22.368Z,103472.13
2018-11-21T11:37:43.938Z,103469.47
2018-11-21T11:39:05.503Z,103463.25
2018-11-21T11:40:28.783Z,103462.41
2018-11-21T11:41:50.341Z,103463.66
2018-11-21T11:43:11.923Z,103451.27
2018-11-21T11:44:33.517Z,103457.08
2018-11-21T11:45:55.072Z,103454.33
2018-11-21T11:47:16.639Z,103450.81
2018-11-21T11:48:38.267Z,103454.33
2018-11-21T11:49:59.827Z,103448.16
2018-11-21T11:51:21.394Z,103448.16
2018-11-21T11:52:42.965Z,103450.81
2018-11-21T11:54:04.594Z,103450.41
2018-11-21T11:55:26.783Z,103449.08
2018-11-21T11:56:48.342Z,103451.22
2018-11-21T11:58:09.928Z,103447.75
2018-11-21T11:59:31.487Z,103440.61
2018-11-21T12:00:53.065Z,103433.50
2018-11-21T12:02:14.683Z,103432.61
2018-11-21T12:03:36.259Z,103423.29
2018-11-21T12:04:57.817Z,103425.95
2018-11-21T12:06:19.362Z,103422.44
2018-11-21T12:07:40.930Z,103420.63
2018-11-21T12:09:02.555Z,103422.36
2018-11-21T12:10:24.245Z,103421.91
2018-11-21T12:11:45.921Z,103420.58
2018-11-21T12:13:07.488Z,103422.31
2018-11-21T12:14:29.062Z,103428.97
2018-11-21T12:15:50.642Z,103424.05
2018-11-21T12:17:12.205Z,103427.64
2018-11-21T12:18:25.892Z,103434.70
2018-11-21T12:19:47.467Z,103436.48
2018-11-21T12:21:09.050Z,103433.37
2018-11-21T12:22:30.614Z,103423.64
2018-11-21T12:23:52.184Z,103429.38
2018-11-21T12:25:13.738Z,103428.89
2018-11-21T12:26:35.362Z,103425.38